Time;durP1;ratioP1;P1;durP2;ratioP2;P2;SDS_P1;SDS_P2;PMS_P1;PMS_P2;Temp;Humidity;BMP_temperature;BMP_pressure;BME280_temperature;BME280_humidity;BME280_pressure;Samples;Min_cycle;Max_cycle;Signal;HPM_P1;HPM_P2
2021/01/14 00:01:12;;;;;;;0.68;0.68;;;3.50;1.00;;;;;;5045163;28;20210;-74
2021/01/14 00:03:39;;;;;;;1.00;0.90;;;3.40;1.00;;;;;;5045791;28;20309;-74
2021/01/14 00:06:10;;;;;;;0.60;0.60;;;3.40;1.00;;;;;;5048959;28;20201;-74
2021/01/14 00:08:37;;;;;;;0.70;0.70;;;3.40;1.00;;;;;;5046938;28;20226;-75
2021/01/14 00:11:04;;;;;;;0.50;0.50;;;3.40;1.00;;;;;;5049837;28;20213;-74
2021/01/14 00:13:32;;;;;;;0.50;0.50;;;3.30;1.00;;;;;;5047809;28;20214;-74
2021/01/14 00:15:59;;;;;;;0.50;0.50;;;3.30;1.00;;;;;;5048178;28;20225;-76
2021/01/14 00:18:26;;;;;;;0.50;0.50;;;3.30;1.00;;;;;;5048019;28;20838;-75
2021/01/14 00:20:54;;;;;;;0.60;0.50;;;3.30;1.00;;;;;;5047427;28;20283;-77
2021/01/14 00:23:21;;;;;;;0.80;0.60;;;3.30;1.00;;;;;;5046531;28;20748;-74
2021/01/14 00:25:48;;;;;;;0.80;0.77;;;3.50;1.00;;;;;;5045934;28;20533;-74
2021/01/14 00:28:15;;;;;;;0.50;0.50;;;3.40;99.90;;;;;;5047133;28;20208;-75
2021/01/14 00:30:43;;;;;;;0.50;0.50;;;3.50;99.90;;;;;;5046434;28;20210;-74
2021/01/14 00:33:10;;;;;;;0.55;0.50;;;3.40;99.90;;;;;;5047732;28;20206;-74
2021/01/14 00:35:37;;;;;;;0.60;0.60;;;3.40;99.90;;;;;;5054599;28;20803;-75
2021/01/14 00:38:04;;;;;;;1.08;0.52;;;3.40;99.90;;;;;;5057048;28;20231;-74
2021/01/14 00:40:33;;;;;;;0.50;0.50;;;3.40;99.90;;;;;;5048505;28;20212;-74
2021/01/14 00:43:01;;;;;;;0.50;0.50;;;3.40;99.90;;;;;;5039999;28;20268;-75
2021/01/14 00:45:29;;;;;;;0.77;0.77;;;3.40;1.00;;;;;;5048074;28;20227;-76
2021/01/14 00:47:58;;;;;;;0.63;0.60;;;3.40;1.00;;;;;;5063069;28;20217;-75
2021/01/14 00:50:26;;;;;;;0.52;0.50;;;3.50;1.00;;;;;;5050013;28;20206;-74
2021/01/14 00:52:54;;;;;;;0.70;0.70;;;3.40;1.00;;;;;;5041681;28;20264;-77
2021/01/14 00:55:21;;;;;;;0.90;0.60;;;3.40;1.00;;;;;;5044679;28;20244;-78
2021/01/14 00:57:48;;;;;;;0.70;0.60;;;3.40;1.00;;;;;;5044999;28;20576;-75
2021/01/14 01:00:19;;;;;;;0.85;0.50;;;3.40;1.00;;;;;;5044153;28;20293;-78
2021/01/14 01:02:48;;;;;;;0.60;0.60;;;3.40;1.00;;;;;;5042285;28;20219;-75
2021/01/14 01:05:17;;;;;;;0.95;0.55;;;3.40;1.00;;;;;;5046370;28;20222;-75
2021/01/14 01:07:49;;;;;;;0.60;0.60;;;3.30;1.00;;;;;;5047592;28;20306;-76
2021/01/14 01:10:16;;;;;;;0.98;0.65;;;3.40;1.00;;;;;;5044415;28;20220;-74
2021/01/14 01:12:43;;;;;;;0.85;0.68;;;3.40;1.00;;;;;;5042031;28;20292;-77
2021/01/14 01:15:11;;;;;;;0.73;0.73;;;3.30;1.00;;;;;;5045388;28;20225;-76
2021/01/14 01:17:38;;;;;;;0.80;0.50;;;3.40;1.00;;;;;;5058530;28;20225;-75
2021/01/14 01:20:07;;;;;;;1.20;0.70;;;3.40;1.00;;;;;;5049410;28;20330;-75
2021/01/14 01:22:35;;;;;;;0.70;0.70;;;3.40;1.00;;;;;;5047599;28;20215;-76
2021/01/14 01:25:02;;;;;;;0.70;0.70;;;3.40;1.00;;;;;;5064674;28;20231;-77
2021/01/14 01:27:29;;;;;;;0.70;0.70;;;3.50;1.00;;;;;;5046253;28;20212;-75
2021/01/14 01:29:56;;;;;;;0.60;0.60;;;3.50;1.00;;;;;;5046290;28;20213;-78
2021/01/14 01:32:24;;;;;;;0.80;0.80;;;3.50;1.00;;;;;;5043449;28;20247;-75
2021/01/14 01:34:51;;;;;;;0.70;0.70;;;3.50;1.00;;;;;;5046525;28;20294;-75
2021/01/14 01:37:18;;;;;;;0.70;0.70;;;3.50;1.00;;;;;;5045329;28;20218;-75
2021/01/14 01:39:47;;;;;;;0.60;0.60;;;3.50;1.00;;;;;;5044734;28;20220;-75
2021/01/14 01:42:14;;;;;;;0.70;0.60;;;3.50;1.00;;;;;;5038791;28;20468;-75
2021/01/14 01:44:43;;;;;;;0.77;0.70;;;3.60;1.00;;;;;;5042065;28;20238;-75
2021/01/14 01:47:11;;;;;;;1.10;0.80;;;3.60;1.00;;;;;;5046813;28;20263;-75
2021/01/14 01:49:40;;;;;;;0.60;0.60;;;3.60;1.00;;;;;;5041645;28;20230;-76
2021/01/14 01:52:08;;;;;;;0.80;0.80;;;3.60;1.00;;;;;;5038031;28;20592;-79
2021/01/14 01:54:36;;;;;;;1.15;0.88;;;3.60;1.00;;;;;;5039678;28;20237;-76
2021/01/14 01:57:05;;;;;;;1.38;1.00;;;3.60;1.00;;;;;;5045894;28;20205;-75
2021/01/14 01:59:33;;;;;;;0.80;0.80;;;3.60;1.00;;;;;;5046624;28;20304;-76
2021/01/14 02:02:21;;;;;;;1.40;1.30;;;3.60;1.00;;;;;;5040373;28;20266;-77
2021/01/14 02:04:49;;;;;;;1.02;0.77;;;3.60;1.00;;;;;;5044581;28;20471;-78
2021/01/14 02:07:26;;;;;;;0.80;0.80;;;3.60;1.00;;;;;;5043887;28;20283;-76
2021/01/14 02:09:56;;;;;;;0.80;0.80;;;3.60;1.00;;;;;;5042386;28;20276;-76
2021/01/14 02:12:32;;;;;;;0.70;0.60;;;3.60;1.00;;;;;;5060368;28;20223;-77
2021/01/14 02:15:01;;;;;;;0.70;0.70;;;3.60;1.00;;;;;;5046773;28;20362;-77
2021/01/14 02:17:29;;;;;;;0.77;0.70;;;3.60;1.00;;;;;;5058658;28;20208;-78
2021/01/14 02:20:01;;;;;;;1.02;0.70;;;3.70;1.00;;;;;;5045693;28;20212;-77
2021/01/14 02:22:32;;;;;;;0.88;0.88;;;3.70;1.00;;;;;;5047007;28;20593;-77
2021/01/14 02:25:07;;;;;;;0.90;0.90;;;3.70;1.00;;;;;;5044044;28;20237;-77
2021/01/14 02:27:36;;;;;;;0.70;0.70;;;3.60;1.00;;;;;;5047078;28;20216;-79
2021/01/14 02:30:05;;;;;;;0.70;0.70;;;3.50;1.00;;;;;;5042175;28;20209;-76
2021/01/14 02:32:32;;;;;;;0.80;0.80;;;3.50;1.00;;;;;;5055955;28;20213;-76
2021/01/14 02:35:00;;;;;;;0.80;0.80;;;3.50;1.00;;;;;;5044615;28;20722;-76
2021/01/14 02:37:27;;;;;;;1.50;0.73;;;3.60;1.00;;;;;;5049173;28;20212;-77
2021/01/14 02:39:54;;;;;;;1.38;0.60;;;3.60;1.00;;;;;;5040572;28;20213;-77
2021/01/14 02:42:21;;;;;;;2.88;0.88;;;3.60;1.00;;;;;;5060283;28;20762;-77
2021/01/14 02:44:49;;;;;;;0.70;0.70;;;3.60;1.00;;;;;;5061385;28;20228;-76
2021/01/14 02:47:18;;;;;;;0.70;0.63;;;3.70;1.00;;;;;;5049701;28;20212;-78
2021/01/14 02:49:58;;;;;;;0.70;0.70;;;3.70;1.00;;;;;;5049659;28;20212;-76
2021/01/14 02:52:27;;;;;;;2.55;0.85;;;3.70;1.00;;;;;;5048907;28;20737;-76
2021/01/14 02:54:56;;;;;;;0.88;0.63;;;3.60;1.00;;;;;;5061959;28;20228;-77
2021/01/14 02:57:26;;;;;;;1.00;0.90;;;3.50;1.00;;;;;;5049933;28;20280;-76
2021/01/14 02:59:54;;;;;;;1.35;0.70;;;3.60;1.00;;;;;;5049522;28;20219;-77
2021/01/14 03:02:22;;;;;;;0.82;0.82;;;3.60;1.00;;;;;;5047314;28;20690;-76
2021/01/14 03:04:49;;;;;;;1.75;0.80;;;3.60;1.00;;;;;;5048989;28;20246;-77
2021/01/14 03:07:16;;;;;;;1.05;0.65;;;3.60;1.00;;;;;;5049686;28;20212;-77
2021/01/14 03:09:43;;;;;;;1.42;0.80;;;3.60;1.00;;;;;;5050889;28;20281;-76
2021/01/14 03:12:10;;;;;;;0.90;0.90;;;3.60;1.00;;;;;;5049564;28;20205;-78
2021/01/14 03:14:37;;;;;;;2.13;0.93;;;3.70;1.00;;;;;;5061778;28;20237;-76
2021/01/14 03:17:05;;;;;;;1.77;0.98;;;3.70;1.00;;;;;;5059409;28;20216;-78
2021/01/14 03:19:32;;;;;;;0.80;0.80;;;3.70;1.00;;;;;;5040535;28;20211;-76
2021/01/14 03:22:00;;;;;;;3.20;0.90;;;3.70;1.00;;;;;;5050976;28;20224;-77
2021/01/14 03:24:27;;;;;;;0.90;0.73;;;3.80;1.00;;;;;;5049980;28;20232;-77
2021/01/14 03:26:54;;;;;;;1.08;0.80;;;3.70;1.00;;;;;;5048876;28;20756;-77
2021/01/14 03:29:21;;;;;;;1.23;0.90;;;3.70;1.00;;;;;;5047448;28;20616;-77
2021/01/14 03:31:49;;;;;;;1.10;0.80;;;3.70;1.00;;;;;;5045768;28;20220;-75
2021/01/14 03:34:17;;;;;;;3.35;1.70;;;3.70;1.00;;;;;;5046417;28;20240;-76
2021/01/14 03:36:57;;;;;;;1.70;1.13;;;3.70;1.00;;;;;;5047591;28;20303;-77
2021/01/14 03:39:25;;;;;;;0.80;0.80;;;3.70;1.00;;;;;;5046174;28;20227;-76
2021/01/14 03:41:52;;;;;;;1.23;0.77;;;3.70;1.00;;;;;;5049347;28;20553;-77
2021/01/14 03:44:20;;;;;;;1.10;1.00;;;3.80;1.00;;;;;;5045972;28;20228;-76
2021/01/14 03:46:47;;;;;;;1.23;1.23;;;3.70;1.00;;;;;;5047874;28;20221;-75
2021/01/14 03:49:15;;;;;;;1.40;1.00;;;3.80;1.00;;;;;;5059224;28;20205;-77
2021/01/14 03:51:44;;;;;;;1.27;1.17;;;3.80;1.00;;;;;;5044781;28;20219;-76
2021/01/14 03:54:11;;;;;;;1.75;0.85;;;3.80;1.00;;;;;;5045185;28;20242;-77
2021/01/14 03:56:40;;;;;;;1.33;1.23;;;3.80;1.00;;;;;;5047468;28;20310;-77
2021/01/14 03:59:08;;;;;;;1.38;1.20;;;3.80;1.00;;;;;;5048628;28;20805;-76
2021/01/14 04:01:35;;;;;;;0.98;0.93;;;3.80;1.00;;;;;;5044852;28;20213;-76
2021/01/14 04:04:03;;;;;;;1.40;1.30;;;3.80;1.00;;;;;;5049711;28;20229;-78
2021/01/14 04:06:32;;;;;;;1.20;1.10;;;3.80;1.00;;;;;;5048267;28;20200;-76
2021/01/14 04:09:00;;;;;;;1.15;1.00;;;3.80;1.00;;;;;;5046219;28;20213;-78
2021/01/14 04:11:27;;;;;;;0.98;0.93;;;3.90;1.00;;;;;;5043358;28;20558;-78
2021/01/14 04:13:55;;;;;;;1.42;1.27;;;3.80;1.00;;;;;;5047946;28;20244;-77
2021/01/14 04:16:22;;;;;;;1.67;1.00;;;3.80;1.00;;;;;;5048132;28;20239;-76
2021/01/14 04:18:49;;;;;;;1.00;0.95;;;3.80;1.00;;;;;;5046868;28;20269;-76
2021/01/14 04:21:17;;;;;;;2.20;1.35;;;3.80;1.00;;;;;;5045196;28;20207;-77
2021/01/14 04:23:45;;;;;;;3.70;1.30;;;3.80;1.00;;;;;;5045681;28;20244;-77
2021/01/14 04:26:13;;;;;;;1.98;1.30;;;3.80;1.00;;;;;;5046581;28;20273;-79
2021/01/14 04:28:41;;;;;;;1.70;0.90;;;3.70;1.00;;;;;;5054592;28;20315;-78
2021/01/14 04:31:08;;;;;;;2.78;1.10;;;3.70;1.00;;;;;;5043040;28;20223;-78
2021/01/14 04:33:35;;;;;;;1.50;1.40;;;3.70;1.00;;;;;;5048465;28;20269;-76
2021/01/14 04:36:03;;;;;;;1.38;1.25;;;3.70;1.00;;;;;;5048896;28;20217;-77
2021/01/14 04:38:30;;;;;;;1.70;1.60;;;3.70;1.00;;;;;;5045551;28;20205;-77
2021/01/14 04:40:59;;;;;;;2.38;1.40;;;3.70;1.00;;;;;;5042988;28;20211;-76
2021/01/14 04:43:28;;;;;;;2.83;1.50;;;3.70;1.00;;;;;;5046963;28;20209;-75
2021/01/14 04:46:03;;;;;;;2.90;1.40;;;3.70;1.00;;;;;;5048279;28;20254;-76
2021/01/14 04:48:34;;;;;;;3.45;1.42;;;3.70;1.00;;;;;;5062984;28;20231;-77
2021/01/14 04:51:07;;;;;;;1.65;1.52;;;3.70;1.00;;;;;;5045534;28;20205;-77
2021/01/14 04:53:35;;;;;;;1.48;1.33;;;3.70;1.00;;;;;;5048025;28;20261;-75
2021/01/14 04:56:06;;;;;;;3.05;1.55;;;3.70;1.00;;;;;;5047050;28;20257;-75
2021/01/14 04:58:35;;;;;;;2.45;1.60;;;3.70;1.00;;;;;;5041708;28;20347;-77
2021/01/14 05:01:06;;;;;;;3.25;1.85;;;3.70;1.00;;;;;;5039417;28;20212;-77
2021/01/14 05:03:37;;;;;;;3.30;2.10;;;3.70;1.00;;;;;;5046065;28;20208;-76
2021/01/14 05:06:06;;;;;;;2.35;1.70;;;3.70;1.00;;;;;;5045420;28;20254;-77
2021/01/14 05:08:34;;;;;;;4.35;3.05;;;3.70;1.00;;;;;;5038796;28;20216;-76
2021/01/14 05:11:01;;;;;;;5.72;2.33;;;3.70;1.00;;;;;;5038398;28;20208;-76
2021/01/14 05:13:32;;;;;;;3.00;1.75;;;3.70;1.00;;;;;;5062845;28;20664;-76
2021/01/14 05:16:02;;;;;;;3.35;2.00;;;3.70;1.00;;;;;;5036301;28;20220;-77
2021/01/14 05:18:29;;;;;;;2.08;1.88;;;3.70;1.00;;;;;;5036378;28;20211;-76
2021/01/14 05:20:58;;;;;;;2.22;2.03;;;3.80;1.00;;;;;;5044651;28;20209;-77
2021/01/14 05:23:26;;;;;;;1.88;1.63;;;3.80;1.00;;;;;;5042921;28;20296;-76
2021/01/14 05:25:53;;;;;;;2.97;1.88;;;3.80;1.00;;;;;;5046046;28;20213;-72
2021/01/14 05:28:22;;;;;;;5.30;2.15;;;3.80;1.00;;;;;;5056126;28;20482;-78
2021/01/14 05:30:50;;;;;;;2.20;2.10;;;3.80;1.00;;;;;;5033890;28;20212;-75
2021/01/14 05:33:19;;;;;;;3.20;2.90;;;3.70;1.00;;;;;;5041629;28;20223;-75
2021/01/14 05:35:50;;;;;;;3.65;2.60;;;3.70;1.00;;;;;;5046343;28;20862;-76
2021/01/14 05:38:25;;;;;;;2.90;2.28;;;3.70;1.00;;;;;;5036245;28;20641;-75
2021/01/14 05:41:18;;;;;;;3.90;2.05;;;3.80;1.00;;;;;;5044720;28;20222;-76
2021/01/14 05:43:53;;;;;;;2.97;2.78;;;3.80;1.00;;;;;;5043668;28;20240;-77
2021/01/14 05:46:22;;;;;;;4.65;4.15;;;3.80;1.00;;;;;;5033377;28;20211;-77
2021/01/14 05:48:51;;;;;;;2.80;2.33;;;3.80;1.00;;;;;;5041130;28;20217;-75
2021/01/14 05:51:21;;;;;;;3.42;3.13;;;3.70;1.00;;;;;;5059112;28;20212;-76
2021/01/14 05:53:57;;;;;;;5.00;3.78;;;3.80;1.00;;;;;;5044901;28;20394;-76
2021/01/14 05:56:37;;;;;;;4.43;2.63;;;3.70;1.00;;;;;;5038236;28;20232;-78
2021/01/14 05:59:07;;;;;;;7.97;3.20;;;3.70;1.00;;;;;;5043618;28;20204;-77
2021/01/14 06:01:35;;;;;;;8.32;4.47;;;3.70;1.00;;;;;;5037166;28;20201;-77
2021/01/14 06:04:21;;;;;;;3.20;3.00;;;3.70;1.00;;;;;;5053083;28;20317;-77
2021/01/14 06:06:49;;;;;;;4.60;3.28;;;3.70;1.00;;;;;;5045936;28;20208;-77
2021/01/14 06:09:18;;;;;;;3.85;3.03;;;3.70;1.00;;;;;;5043470;28;20209;-76
2021/01/14 06:11:46;;;;;;;5.43;3.72;;;3.60;1.00;;;;;;5041895;28;20684;-75
2021/01/14 06:14:30;;;;;;;10.32;4.13;;;3.60;1.00;;;;;;5045694;28;20236;-75
2021/01/14 06:16:59;;;;;;;7.80;2.85;;;3.50;1.00;;;;;;5048617;28;20250;-74
2021/01/14 06:19:27;;;;;;;6.18;2.42;;;3.50;1.00;;;;;;5075557;28;20220;-75
2021/01/14 06:21:56;;;;;;;2.08;1.88;;;3.50;1.00;;;;;;5049471;28;20212;-76
2021/01/14 06:24:27;;;;;;;3.90;2.40;;;3.40;1.00;;;;;;5051212;28;20995;-76
2021/01/14 06:26:56;;;;;;;4.60;2.53;;;3.50;1.00;;;;;;5051649;28;20216;-76
2021/01/14 06:29:27;;;;;;;3.60;2.60;;;3.50;1.00;;;;;;5046986;28;20212;-76
2021/01/14 06:32:06;;;;;;;3.78;3.00;;;3.50;1.00;;;;;;5041647;28;20241;-71
2021/01/14 06:34:35;;;;;;;6.35;2.88;;;3.50;1.00;;;;;;5044692;28;20226;-77
2021/01/14 06:37:11;;;;;;;2.85;2.40;;;3.50;1.00;;;;;;5045856;28;20232;-75
2021/01/14 06:39:40;;;;;;;4.75;2.70;;;3.50;1.00;;;;;;5040381;28;20220;-77
2021/01/14 06:42:16;;;;;;;5.03;2.70;;;3.50;1.00;;;;;;5042775;28;20216;-75
2021/01/14 06:44:50;;;;;;;4.38;2.50;;;3.60;1.00;;;;;;5047901;28;20223;-78
2021/01/14 06:47:31;;;;;;;7.15;2.95;;;3.50;1.00;;;;;;5040585;28;20217;-76
2021/01/14 06:50:24;;;;;;;3.15;2.85;;;3.50;1.00;;;;;;5044431;28;20212;-76
2021/01/14 06:53:01;;;;;;;2.15;2.00;;;3.50;1.00;;;;;;5042974;28;20606;-75
2021/01/14 06:55:30;;;;;;;3.92;3.05;;;3.40;1.00;;;;;;5044844;28;20227;-77
2021/01/14 06:58:08;;;;;;;4.43;3.22;;;3.40;1.00;;;;;;5042571;28;20299;-74
2021/01/14 07:00:40;;;;;;;3.05;2.00;;;3.40;1.00;;;;;;5050626;28;20769;-79
2021/01/14 07:03:19;;;;;;;4.97;2.90;;;3.40;1.00;;;;;;5048850;28;20216;-75
2021/01/14 07:06:04;;;;;;;3.95;2.60;;;3.40;1.00;;;;;;5043100;28;20319;-75
2021/01/14 07:08:33;;;;;;;6.95;2.85;;;3.40;1.00;;;;;;5043911;28;20688;-77
2021/01/14 07:11:03;;;;;;;3.10;2.55;;;3.40;1.00;;;;;;5044860;28;20212;-76
2021/01/14 07:13:32;;;;;;;2.92;2.70;;;3.40;1.00;;;;;;5037942;28;20559;-75
2021/01/14 07:16:00;;;;;;;2.35;2.15;;;3.30;1.00;;;;;;5042245;28;20231;-76
2021/01/14 07:18:29;;;;;;;3.60;2.08;;;3.30;1.00;;;;;;5044046;28;20299;-77
2021/01/14 07:21:04;;;;;;;2.10;2.00;;;3.30;1.00;;;;;;5038561;28;20212;-76
2021/01/14 07:23:36;;;;;;;2.40;1.80;;;3.30;1.00;;;;;;5045066;28;20219;-77
2021/01/14 07:26:05;;;;;;;2.95;1.90;;;3.30;1.00;;;;;;5045312;28;20203;-77
2021/01/14 07:28:35;;;;;;;3.35;2.10;;;3.30;1.00;;;;;;5041681;28;20219;-75
2021/01/14 07:31:21;;;;;;;2.60;2.20;;;3.30;1.00;;;;;;5045691;28;20205;-77
2021/01/14 07:33:48;;;;;;;4.00;2.13;;;3.20;1.00;;;;;;5065722;28;20280;-75
2021/01/14 07:36:22;;;;;;;3.05;1.40;;;3.30;99.90;;;;;;5046742;28;20224;-74
2021/01/14 07:38:51;;;;;;;3.30;1.40;;;3.30;99.90;;;;;;5040116;28;20343;-74
2021/01/14 07:41:18;;;;;;;3.20;1.65;;;3.30;99.90;;;;;;5043639;28;20216;-77
2021/01/14 07:43:46;;;;;;;3.97;3.60;;;3.30;99.90;;;;;;5046710;28;20284;-75
2021/01/14 07:46:18;;;;;;;2.60;1.50;;;3.30;99.90;;;;;;5044473;28;20211;-74
2021/01/14 07:48:45;;;;;;;1.50;1.40;;;3.30;99.90;;;;;;5048327;28;20224;-74
2021/01/14 07:51:13;;;;;;;3.17;1.48;;;3.20;1.00;;;;;;5045673;28;20710;-75
2021/01/14 07:53:41;;;;;;;2.15;1.65;;;3.20;1.00;;;;;;5039990;28;20219;-76
2021/01/14 07:56:27;;;;;;;1.33;1.15;;;3.20;99.90;;;;;;5041723;28;20230;-76
2021/01/14 07:58:58;;;;;;;2.35;1.52;;;3.10;1.00;;;;;;5041193;28;20293;-75
2021/01/14 08:01:25;;;;;;;1.30;1.20;;;3.00;99.90;;;;;;5043247;28;20211;-74
2021/01/14 08:03:52;;;;;;;2.08;1.40;;;3.00;99.90;;;;;;5048489;28;20282;-73
2021/01/14 08:06:25;;;;;;;1.40;1.30;;;3.00;1.00;;;;;;5042697;28;20213;-75
2021/01/14 08:09:01;;;;;;;1.45;1.35;;;3.00;99.90;;;;;;5044772;28;20751;-75
2021/01/14 08:11:30;;;;;;;1.73;1.10;;;3.00;37.00;;;;;;5040010;28;20226;-74
2021/01/14 08:14:08;;;;;;;1.10;1.00;;;3.00;1.00;;;;;;5048156;28;20311;-75
2021/01/14 08:16:37;;;;;;;3.20;1.50;;;3.00;99.90;;;;;;5042240;28;20227;-75
2021/01/14 08:19:17;;;;;;;1.77;1.55;;;3.00;1.00;;;;;;5040552;28;20741;-75
2021/01/14 08:21:49;;;;;;;1.35;1.25;;;3.00;1.00;;;;;;5043202;28;20386;-76
2021/01/14 08:24:37;;;;;;;1.40;1.30;;;3.00;1.00;;;;;;5049408;28;20235;-74
2021/01/14 08:27:07;;;;;;;2.28;1.52;;;3.00;1.00;;;;;;5044930;28;20727;-74
2021/01/14 08:29:40;;;;;;;1.10;1.00;;;3.00;99.90;;;;;;5044329;28;20215;-78
2021/01/14 08:32:33;;;;;;;2.10;1.38;;;3.00;58.90;;;;;;5050338;28;20287;-75
2021/01/14 08:35:22;;;;;;;2.10;1.40;;;3.00;99.90;;;;;;5044719;28;20243;-75
2021/01/14 08:37:51;;;;;;;2.05;1.40;;;3.10;99.90;;;;;;5058897;28;20252;-75
2021/01/14 08:40:24;;;;;;;4.10;1.77;;;3.10;1.00;;;;;;5044401;28;20216;-75
2021/01/14 08:43:01;;;;;;;5.93;1.77;;;3.10;99.90;;;;;;5044571;28;20683;-75
2021/01/14 08:45:30;;;;;;;1.80;1.50;;;3.20;95.30;;;;;;5039962;28;20232;-77
2021/01/14 08:48:12;;;;;;;5.25;1.85;;;3.20;1.00;;;;;;5045682;28;20216;-76
2021/01/14 08:50:47;;;;;;;2.15;1.92;;;3.20;99.90;;;;;;5043271;28;20219;-78
2021/01/14 08:53:24;;;;;;;2.15;1.35;;;3.10;1.00;;;;;;5046105;28;20310;-73
2021/01/14 08:55:54;;;;;;;2.05;1.60;;;3.10;96.30;;;;;;5041360;28;20235;-75
2021/01/14 08:58:21;;;;;;;1.60;1.45;;;3.10;99.90;;;;;;5042902;28;20219;-75
2021/01/14 09:00:49;;;;;;;1.80;1.70;;;3.20;1.00;;;;;;5042529;28;20216;-76
2021/01/14 09:03:18;;;;;;;2.15;1.50;;;3.20;1.00;;;;;;5050045;28;20701;-77
2021/01/14 09:05:46;;;;;;;2.15;1.95;;;3.20;1.00;;;;;;5041167;28;20229;-77
2021/01/14 09:08:17;;;;;;;3.67;1.80;;;3.30;1.00;;;;;;5042578;28;20222;-75
2021/01/14 09:10:49;;;;;;;5.18;1.98;;;3.30;99.90;;;;;;5042334;28;20219;-79
2021/01/14 09:13:19;;;;;;;1.85;1.75;;;3.30;1.00;;;;;;5046442;28;20212;-75
2021/01/14 09:15:48;;;;;;;2.70;1.92;;;3.30;1.00;;;;;;5044158;28;20240;-74
2021/01/14 09:18:17;;;;;;;2.08;1.65;;;3.20;1.00;;;;;;5053768;28;20831;-74
2021/01/14 09:20:51;;;;;;;3.03;1.85;;;3.20;99.90;;;;;;5044171;28;20208;-79
2021/01/14 09:23:24;;;;;;;2.10;2.00;;;3.30;99.90;;;;;;5055592;28;20218;-75
2021/01/14 09:25:53;;;;;;;4.13;2.70;;;3.20;1.00;;;;;;5046445;28;20295;-74
2021/01/14 09:28:23;;;;;;;1.98;1.75;;;3.30;8.50;;;;;;5044304;28;20222;-74
2021/01/14 09:30:58;;;;;;;1.88;1.77;;;3.30;99.90;;;;;;5036895;28;20216;-74
2021/01/14 09:33:27;;;;;;;4.60;1.65;;;3.20;99.90;;;;;;5041345;28;20220;-75
2021/01/14 09:36:04;;;;;;;2.25;1.40;;;3.20;1.00;;;;;;5045001;28;20251;-76
2021/01/14 09:38:45;;;;;;;2.30;2.00;;;3.20;1.00;;;;;;5044134;28;20219;-75
2021/01/14 09:41:23;;;;;;;2.10;1.67;;;3.10;1.00;;;;;;5047447;28;20227;-81
2021/01/14 09:43:58;;;;;;;2.55;1.50;;;3.10;99.90;;;;;;5041236;28;20254;-75
2021/01/14 09:46:27;;;;;;;2.45;2.10;;;3.20;1.00;;;;;;5035973;28;20203;-78
2021/01/14 09:49:03;;;;;;;4.25;2.40;;;3.30;1.00;;;;;;5036473;28;20207;-74
2021/01/14 09:51:30;;;;;;;2.75;2.30;;;3.20;99.90;;;;;;5037436;28;20215;-75
2021/01/14 09:53:58;;;;;;;2.20;2.10;;;3.20;1.00;;;;;;5043114;28;20248;-79
2021/01/14 09:56:31;;;;;;;4.53;2.17;;;3.20;99.90;;;;;;5045705;28;20244;-74
2021/01/14 09:59:03;;;;;;;3.38;2.35;;;3.30;99.90;;;;;;5041465;28;20256;-76
2021/01/14 10:01:36;;;;;;;2.47;1.90;;;3.40;57.80;;;;;;5043274;28;20239;-75
2021/01/14 10:04:06;;;;;;;2.97;2.08;;;3.40;1.00;;;;;;5032123;28;20297;-75
2021/01/14 10:06:43;;;;;;;1.80;1.70;;;3.40;1.00;;;;;;5056309;28;20208;-74
2021/01/14 10:09:11;;;;;;;2.13;1.92;;;3.40;1.00;;;;;;5037821;28;20223;-73
2021/01/14 10:11:39;;;;;;;1.63;1.50;;;3.20;99.90;;;;;;5037507;28;20907;-74
2021/01/14 10:14:16;;;;;;;2.08;1.63;;;3.20;1.00;;;;;;5038544;28;20296;-75
2021/01/14 10:16:44;;;;;;;2.92;2.20;;;3.20;1.00;;;;;;5042638;28;20226;-74
2021/01/14 10:19:15;;;;;;;2.20;1.85;;;3.10;1.00;;;;;;5034270;28;20265;-74
2021/01/14 10:21:43;;;;;;;5.90;2.75;;;3.00;1.00;;;;;;5046668;28;20254;-73
2021/01/14 10:24:22;;;;;;;4.25;2.40;;;3.00;1.00;;;;;;5044480;28;20232;-74
2021/01/14 10:26:49;;;;;;;2.55;2.35;;;3.10;99.90;;;;;;5041763;28;20207;-77
2021/01/14 10:29:38;;;;;;;3.80;3.33;;;3.10;1.00;;;;;;5042208;28;20214;-76
2021/01/14 10:32:08;;;;;;;2.80;2.53;;;3.20;1.00;;;;;;5041255;28;20302;-76
2021/01/14 10:34:43;;;;;;;2.70;2.30;;;3.30;1.00;;;;;;5040084;28;20285;-74
2021/01/14 10:37:21;;;;;;;3.70;2.33;;;3.40;99.90;;;;;;5036157;28;20238;-74
2021/01/14 10:39:49;;;;;;;3.63;3.28;;;3.50;99.90;;;;;;5036587;28;20247;-74
2021/01/14 10:42:35;;;;;;;2.80;1.98;;;3.50;99.90;;;;;;5043826;28;20225;-74
2021/01/14 10:45:06;;;;;;;2.88;2.53;;;3.50;99.90;;;;;;5044797;28;20228;-74
2021/01/14 10:47:34;;;;;;;2.45;1.85;;;3.60;1.00;;;;;;5040944;28;20208;-76
2021/01/14 10:50:01;;;;;;;4.20;2.15;;;3.50;99.90;;;;;;5058591;28;20692;-76
2021/01/14 10:52:29;;;;;;;4.57;2.22;;;3.50;99.90;;;;;;5040674;28;20223;-77
2021/01/14 10:54:57;;;;;;;2.33;2.13;;;3.50;99.90;;;;;;5045803;28;20235;-74
2021/01/14 10:57:44;;;;;;;3.42;2.35;;;3.50;99.90;;;;;;5042834;28;20236;-75
2021/01/14 11:00:16;;;;;;;3.25;1.83;;;3.60;1.00;;;;;;5045440;28;20216;-75
2021/01/14 11:02:45;;;;;;;3.83;2.50;;;3.70;1.00;;;;;;5045667;28;20205;-76
2021/01/14 11:05:13;;;;;;;2.90;2.20;;;3.70;1.00;;;;;;5059750;28;20724;-78
2021/01/14 11:07:40;;;;;;;4.30;2.08;;;3.70;99.90;;;;;;5047887;28;20223;-75
2021/01/14 11:10:09;;;;;;;3.75;2.85;;;3.70;99.90;;;;;;5051748;28;20221;-75
2021/01/14 11:13:05;;;;;;;3.22;2.03;;;3.70;99.90;;;;;;5041966;28;20223;-76
2021/01/14 11:15:33;;;;;;;4.80;2.50;;;3.70;1.00;;;;;;5049049;28;20239;-74
2021/01/14 11:18:05;;;;;;;4.40;3.28;;;3.80;1.00;;;;;;5045373;28;20200;-74
2021/01/14 11:20:37;;;;;;;6.43;2.30;;;3.80;99.90;;;;;;5045933;28;20212;-75
2021/01/14 11:23:04;;;;;;;3.15;2.90;;;3.90;99.90;;;;;;5047384;28;20199;-77
2021/01/14 11:25:32;;;;;;;2.63;2.42;;;3.90;99.90;;;;;;5050281;28;20281;-78
2021/01/14 11:27:59;;;;;;;3.17;2.55;;;3.70;99.90;;;;;;5044249;28;20684;-77
2021/01/14 11:30:27;;;;;;;3.95;2.60;;;3.70;1.00;;;;;;5043711;28;20618;-74
2021/01/14 11:32:55;;;;;;;3.10;2.72;;;3.70;1.00;;;;;;5051853;28;20712;-73
2021/01/14 11:35:22;;;;;;;5.80;3.25;;;3.70;1.00;;;;;;5057646;28;20248;-74
2021/01/14 11:37:51;;;;;;;2.60;2.40;;;3.70;1.00;;;;;;5050095;28;20235;-74
2021/01/14 11:40:18;;;;;;;3.45;2.92;;;3.70;99.90;;;;;;5041811;28;20406;-74
2021/01/14 11:42:45;;;;;;;3.38;2.95;;;3.70;1.00;;;;;;5043547;28;20224;-73
2021/01/14 11:45:13;;;;;;;5.05;2.80;;;3.70;99.90;;;;;;5047003;28;20925;-75
2021/01/14 11:47:40;;;;;;;5.15;2.88;;;3.70;99.90;;;;;;5046057;28;20221;-77
2021/01/14 11:50:09;;;;;;;3.83;3.00;;;3.80;99.90;;;;;;5054486;28;21756;-75
2021/01/14 11:52:36;;;;;;;4.70;3.15;;;3.80;1.00;;;;;;5055228;28;20227;-77
2021/01/14 11:55:04;;;;;;;3.83;3.45;;;3.70;1.00;;;;;;5047384;28;20243;-79
2021/01/14 11:57:31;;;;;;;3.42;3.13;;;3.80;1.00;;;;;;5045803;28;20221;-78
2021/01/14 11:59:58;;;;;;;4.03;2.47;;;3.90;99.90;;;;;;5046951;28;20225;-78
2021/01/14 12:02:25;;;;;;;4.88;2.75;;;3.80;99.90;;;;;;5045459;28;20231;-77
2021/01/14 12:04:52;;;;;;;3.60;2.95;;;3.70;99.90;;;;;;5045121;28;20682;-78
2021/01/14 12:07:20;;;;;;;3.58;2.30;;;3.70;1.00;;;;;;5046147;28;20209;-77
2021/01/14 12:09:48;;;;;;;4.35;2.33;;;3.70;1.00;;;;;;5049136;28;20215;-79
2021/01/14 12:12:15;;;;;;;4.00;2.65;;;3.60;1.00;;;;;;5045257;28;20217;-76
2021/01/14 12:14:42;;;;;;;7.60;2.38;;;3.60;99.90;;;;;;5075585;28;20240;-77
2021/01/14 12:17:09;;;;;;;2.80;2.45;;;3.20;1.00;;;;;;5058070;28;20236;-77
2021/01/14 12:19:36;;;;;;;4.22;2.42;;;3.00;99.90;;;;;;5048000;28;20253;-77
2021/01/14 12:22:05;;;;;;;3.78;2.83;;;3.00;1.00;;;;;;5057639;28;20220;-77
2021/01/14 12:24:33;;;;;;;6.53;2.50;;;3.10;92.80;;;;;;5071128;28;20251;-78
2021/01/14 12:27:01;;;;;;;2.88;2.42;;;3.00;47.80;;;;;;5043603;28;20195;-78
2021/01/14 12:29:28;;;;;;;4.57;2.45;;;3.00;99.90;;;;;;5052829;28;20231;-78
2021/01/14 12:31:56;;;;;;;4.57;2.65;;;2.90;1.00;;;;;;5042119;28;20272;-79
2021/01/14 12:34:27;;;;;;;5.65;2.70;;;2.70;99.90;;;;;;5049774;28;20292;-77
2021/01/14 12:36:55;;;;;;;4.70;3.28;;;2.70;1.00;;;;;;5046516;28;20587;-76
2021/01/14 12:39:22;;;;;;;3.50;2.20;;;2.50;1.00;;;;;;5043690;28;20204;-77
2021/01/14 12:41:50;;;;;;;3.80;1.98;;;2.60;1.00;;;;;;5044924;28;20212;-78
2021/01/14 12:44:18;;;;;;;2.65;1.73;;;2.60;2.30;;;;;;5043811;28;20232;-79
2021/01/14 12:46:46;;;;;;;3.50;1.92;;;2.60;99.90;;;;;;5052724;28;20244;-78
2021/01/14 12:49:16;;;;;;;3.95;1.80;;;2.70;99.90;;;;;;5049319;28;20691;-80
2021/01/14 12:51:44;;;;;;;4.05;3.20;;;2.90;1.00;;;;;;5047526;28;20214;-75
2021/01/14 12:54:11;;;;;;;2.95;2.20;;;3.00;1.00;;;;;;5049608;28;20248;-78
2021/01/14 12:56:41;;;;;;;2.65;1.70;;;3.10;1.00;;;;;;5045520;28;20236;-76
2021/01/14 12:59:10;;;;;;;3.55;2.20;;;3.20;99.90;;;;;;5044796;28;20266;-78
2021/01/14 13:01:38;;;;;;;4.07;2.00;;;3.20;1.00;;;;;;5054353;28;20238;-77
2021/01/14 13:04:07;;;;;;;3.67;2.28;;;3.00;1.00;;;;;;5047232;28;20720;-78
2021/01/14 13:06:35;;;;;;;2.92;2.65;;;3.00;1.00;;;;;;5047966;28;20208;-78
2021/01/14 13:09:04;;;;;;;2.88;2.03;;;3.00;1.00;;;;;;5048433;28;20254;-78
2021/01/14 13:11:31;;;;;;;2.20;2.00;;;3.00;99.90;;;;;;5050590;28;20211;-76
2021/01/14 13:13:59;;;;;;;3.42;2.55;;;2.90;99.90;;;;;;5047277;28;20239;-78
2021/01/14 13:16:36;;;;;;;3.33;1.65;;;3.00;99.90;;;;;;5041612;28;20247;-77
2021/01/14 13:19:05;;;;;;;3.00;1.40;;;2.60;99.90;;;;;;5050931;28;20212;-78
2021/01/14 13:21:37;;;;;;;1.95;1.40;;;2.70;1.00;;;;;;5056319;28;20216;-78